createdAt,value
2018-01-04T00:02:08.045Z,1.97
2018-01-04T00:04:50.466Z,8.30
2018-01-04T00:07:33.134Z,35.07
2018-01-04T00:10:15.670Z,4.80
2018-01-04T00:13:04.632Z,5.80
2018-01-04T00:15:47.108Z,7.37
2018-01-04T00:18:29.720Z,1.83
2018-01-04T00:21:12.220Z,1.60
2018-01-04T00:23:55.106Z,14.43
2018-01-04T00:26:37.502Z,1.83
2018-01-04T00:29:20.041Z,8.77
2018-01-04T00:32:02.797Z,7.23
2018-01-04T00:34:46.166Z,6.30
2018-01-04T00:37:49.392Z,7.20
2018-01-04T00:40:31.471Z,3.00
2018-01-04T00:43:14.228Z,3.03
2018-01-04T00:45:56.734Z,12.23
2018-01-04T00:48:39.387Z,7.70
2018-01-04T00:51:22.429Z,5.03
2018-01-04T00:54:04.925Z,11.63
2018-01-04T00:56:47.657Z,1.83
2018-01-04T00:59:30.365Z,18.90
2018-01-04T01:02:13.008Z,14.07
2018-01-04T01:04:55.881Z,23.13
2018-01-04T01:07:38.930Z,6.87
2018-01-04T01:10:21.943Z,19.37
2018-01-04T01:13:12.963Z,10.70
2018-01-04T01:15:55.813Z,8.57
2018-01-04T01:18:45.598Z,8.70
2018-01-04T01:21:28.397Z,2.80
2018-01-04T01:24:11.002Z,9.43
2018-01-04T01:26:53.639Z,3.33
2018-01-04T01:29:37.071Z,2.87
2018-01-04T01:32:20.733Z,4.50
2018-01-04T01:35:03.621Z,15.87
2018-01-04T01:37:46.262Z,5.47
2018-01-04T01:40:29.854Z,9.93
2018-01-04T01:43:12.438Z,7.43
2018-01-04T01:46:00.025Z,7.93
2018-01-04T01:48:42.621Z,11.03
2018-01-04T01:51:25.400Z,16.97
2018-01-04T01:54:08.115Z,8.20
2018-01-04T01:56:53.590Z,28.80
2018-01-04T01:59:36.366Z,11.63
2018-01-04T02:02:19.117Z,16.67
2018-01-04T02:05:01.552Z,12.07
2018-01-04T02:07:44.173Z,18.20
2018-01-04T02:10:26.826Z,49.50
2018-01-04T02:13:10.170Z,42.77
2018-01-04T02:16:05.623Z,31.93
2018-01-04T02:18:53.831Z,109.27
2018-01-04T02:21:42.352Z,37.27
2018-01-04T02:24:31.314Z,30.20
2018-01-04T02:27:19.666Z,11.33
2018-01-04T02:30:07.766Z,36.87
2018-01-04T02:32:56.297Z,36.37
2018-01-04T02:35:44.470Z,24.00
2018-01-04T02:38:33.134Z,44.70
2018-01-04T02:41:21.192Z,28.87
2018-01-04T02:44:04.222Z,92.10
2018-01-04T02:46:46.936Z,70.40
2018-01-04T02:49:29.152Z,21.67
2018-01-04T02:52:11.910Z,12.30
2018-01-04T02:54:54.737Z,67.13
2018-01-04T02:57:44.651Z,41.87
2018-01-04T03:00:27.071Z,27.20
2018-01-04T03:03:09.789Z,39.90
2018-01-04T03:05:52.609Z,36.27
2018-01-04T03:08:35.455Z,32.33
2018-01-04T03:11:18.369Z,64.90
2018-01-04T03:14:01.100Z,85.83
2018-01-04T03:16:43.859Z,69.03
2018-01-04T03:19:40.555Z,92.17
2018-01-04T03:22:29.040Z,40.47
2018-01-04T03:25:18.307Z,101.77
2018-01-04T03:28:06.915Z,33.17
2018-01-04T03:30:55.034Z,23.40
2018-01-04T03:33:43.595Z,28.20
2018-01-04T03:36:32.218Z,28.13
2018-01-04T03:39:20.895Z,35.37
2018-01-04T03:42:14.558Z,15.50
2018-01-04T03:45:02.255Z,24.43
2018-01-04T03:47:50.000Z,33.43
2018-01-04T03:50:37.849Z,43.80
2018-01-04T03:53:25.735Z,9.03
2018-01-04T03:56:13.810Z,25.07
2018-01-04T03:59:03.256Z,35.67
2018-01-04T04:01:51.136Z,95.83
2018-01-04T04:04:39.901Z,73.87
2018-01-04T04:07:36.495Z,27.77
2018-01-04T04:10:19.344Z,39.97
2018-01-04T04:13:07.042Z,42.60
2018-01-04T04:15:49.918Z,56.10
2018-01-04T04:18:32.592Z,44.00
2018-01-04T04:21:22.281Z,14.07
2018-01-04T04:24:05.101Z,37.17
2018-01-04T04:26:48.707Z,41.63
2018-01-04T04:29:31.661Z,19.43
2018-01-04T04:32:14.533Z,31.63
2018-01-04T04:35:04.457Z,24.00
2018-01-04T04:37:49.922Z,1.40
2018-01-04T04:40:33.833Z,9.00
2018-01-04T04:43:16.750Z,2.90
2018-01-04T04:46:06.892Z,4.60
2018-01-04T04:48:49.360Z,5.93
2018-01-04T04:51:32.220Z,2.93
2018-01-04T04:54:20.918Z,6.60
2018-01-04T04:57:10.145Z,2.23
2018-01-04T04:59:53.041Z,2.47
2018-01-04T05:02:35.682Z,2.20
2018-01-04T05:05:24.430Z,2.10
2018-01-04T05:08:13.916Z,3.63
2018-01-04T05:10:57.054Z,2.03
2018-01-04T05:13:40.034Z,1.37
2018-01-04T05:16:22.868Z,1.73
2018-01-04T05:19:05.870Z,5.50
2018-01-04T05:21:48.514Z,1.30
2018-01-04T05:24:31.350Z,5.37
2018-01-04T05:27:14.069Z,1.50
2018-01-04T05:29:56.901Z,6.10
2018-01-04T05:32:39.768Z,3.90
2018-01-04T05:35:22.686Z,2.87
2018-01-04T05:38:05.586Z,1.47
2018-01-04T05:40:48.435Z,13.27
2018-01-04T05:43:31.003Z,8.27
2018-01-04T05:46:14.771Z,1.50
2018-01-04T05:48:57.205Z,7.13
2018-01-04T05:51:40.089Z,14.77
2018-01-04T05:54:22.677Z,5.63
2018-01-04T05:57:05.548Z,1.10
2018-01-04T05:59:48.489Z,8.93
2018-01-04T06:02:31.206Z,1.30
2018-01-04T06:05:13.986Z,9.63
2018-01-04T06:07:56.834Z,4.00
2018-01-04T06:10:39.806Z,1.57
2018-01-04T06:13:22.598Z,2.20
2018-01-04T06:16:05.421Z,7.80
2018-01-04T06:18:48.153Z,2.70
2018-01-04T06:21:30.966Z,2.00
2018-01-04T06:24:13.666Z,8.23
2018-01-04T06:26:56.534Z,16.03
2018-01-04T06:29:39.225Z,3.33
2018-01-04T06:32:21.868Z,25.67
2018-01-04T06:35:04.369Z,9.60
2018-01-04T06:37:54.677Z,29.53
2018-01-04T06:40:37.115Z,1.37
2018-01-04T06:43:19.782Z,11.63
2018-01-04T06:46:02.509Z,6.23
2018-01-04T06:48:44.991Z,2.90
2018-01-04T06:51:27.865Z,6.20
2018-01-04T06:54:10.641Z,6.20
2018-01-04T06:56:53.193Z,3.93
2018-01-04T06:59:35.877Z,14.80
2018-01-04T07:02:18.699Z,27.47
2018-01-04T07:05:01.263Z,27.67
2018-01-04T07:07:43.967Z,17.10
2018-01-04T07:10:26.795Z,31.73
2018-01-04T07:13:12.626Z,29.37
2018-01-04T07:15:55.036Z,38.73
2018-01-04T07:18:37.707Z,49.40
2018-01-04T07:21:20.400Z,16.70
2018-01-04T07:24:03.423Z,34.73
2018-01-04T07:26:47.119Z,40.87
2018-01-04T07:29:30.037Z,12.23
2018-01-04T07:32:16.381Z,5.33
2018-01-04T07:34:58.849Z,20.57
2018-01-04T07:37:41.488Z,8.60
2018-01-04T07:40:24.346Z,19.70
2018-01-04T07:43:08.119Z,2.43
2018-01-04T07:45:50.995Z,13.00
2018-01-04T07:48:33.881Z,8.10
2018-01-04T07:51:16.523Z,6.63
2018-01-04T07:53:59.406Z,15.10
2018-01-04T07:56:57.198Z,14.80
2018-01-04T07:59:40.087Z,20.00
2018-01-04T08:02:22.781Z,9.07
2018-01-04T08:05:08.583Z,3.80
2018-01-04T08:07:51.427Z,6.60
2018-01-04T08:10:34.184Z,1.10
2018-01-04T08:13:17.186Z,3.90
2018-01-04T08:15:59.703Z,4.10
2018-01-04T08:18:42.403Z,8.83
2018-01-04T08:21:25.002Z,7.70
2018-01-04T08:24:07.820Z,1.67
2018-01-04T08:26:50.314Z,2.40
2018-01-04T08:29:33.106Z,1.83
2018-01-04T08:32:15.337Z,7.53
2018-01-04T08:34:58.136Z,3.40
2018-01-04T08:37:40.402Z,1.10
2018-01-04T08:40:23.018Z,2.33
2018-01-04T08:43:05.763Z,1.20
2018-01-04T08:45:48.512Z,1.17
2018-01-04T08:48:30.992Z,1.20
2018-01-04T08:51:13.675Z,3.20
2018-01-04T08:53:57.540Z,4.87
2018-01-04T08:56:40.146Z,5.00
2018-01-04T08:59:23.352Z,5.10
2018-01-04T09:02:05.817Z,1.87
2018-01-04T09:04:48.843Z,1.60
2018-01-04T09:07:32.419Z,4.70
2018-01-04T09:10:15.294Z,1.20
2018-01-04T09:12:58.225Z,5.63
2018-01-04T09:15:41.694Z,2.03
2018-01-04T09:21:13.142Z,14.63
2018-01-04T09:23:55.965Z,1.20
2018-01-04T09:26:38.486Z,1.53
2018-01-04T09:29:20.935Z,5.37
2018-01-04T09:32:03.810Z,6.63
2018-01-04T09:34:46.921Z,2.80
2018-01-04T09:37:29.421Z,2.83
2018-01-04T09:40:12.075Z,2.07
2018-01-04T09:42:54.727Z,7.73
2018-01-04T09:45:37.748Z,2.70
2018-01-04T09:48:26.682Z,3.33
2018-01-04T09:51:09.199Z,2.33
2018-01-04T09:53:52.461Z,4.03
2018-01-04T09:56:34.653Z,1.97
2018-01-04T09:59:17.253Z,7.33
2018-01-04T10:02:00.297Z,3.83
2018-01-04T10:04:42.789Z,2.07
2018-01-04T10:07:25.521Z,1.73
2018-01-04T10:10:08.234Z,4.47
2018-01-04T10:12:51.042Z,2.80
2018-01-04T10:15:33.827Z,2.23
2018-01-04T10:18:18.401Z,3.57
2018-01-04T10:21:02.253Z,5.83
2018-01-04T10:23:45.149Z,14.30
2018-01-04T10:26:27.804Z,5.37
2018-01-04T10:29:10.484Z,5.00
2018-01-04T10:31:53.318Z,3.47
2018-01-04T10:34:35.937Z,4.90
2018-01-04T10:37:18.959Z,1.43
2018-01-04T10:40:01.586Z,5.33
2018-01-04T10:42:43.806Z,2.70
2018-01-04T10:45:26.231Z,16.20
2018-01-04T10:48:09.520Z,4.73
2018-01-04T10:50:51.951Z,1.73
2018-01-04T10:53:35.078Z,6.77
2018-01-04T10:56:17.358Z,4.53
2018-01-04T10:59:00.124Z,12.33
2018-01-04T11:01:49.342Z,1.70
2018-01-04T11:04:31.537Z,18.23
2018-01-04T11:07:14.398Z,8.60
2018-01-04T11:09:57.124Z,24.57
2018-01-04T11:12:39.672Z,17.43
2018-01-04T11:15:22.422Z,4.43
2018-01-04T11:18:18.654Z,4.93
2018-01-04T11:21:00.817Z,7.37
2018-01-04T11:23:43.567Z,6.43
2018-01-04T11:26:26.239Z,4.87
2018-01-04T11:29:08.770Z,6.93
2018-01-04T11:31:58.873Z,2.30
2018-01-04T11:34:41.305Z,24.53
2018-01-04T11:37:24.161Z,4.93
2018-01-04T11:40:06.764Z,8.03
2018-01-04T11:42:49.770Z,7.90
2018-01-04T11:45:32.323Z,12.60
2018-01-04T11:48:15.311Z,4.63
2018-01-04T11:50:57.836Z,2.20
2018-01-04T11:53:40.723Z,5.57
2018-01-04T11:56:23.914Z,4.03
2018-01-04T11:59:08.589Z,2.70
2018-01-04T12:01:51.637Z,3.77
2018-01-04T12:04:39.686Z,6.20
2018-01-04T12:07:22.693Z,2.80
2018-01-04T12:10:05.542Z,4.53
2018-01-04T12:12:48.729Z,5.70
2018-01-04T12:15:43.697Z,2.57
2018-01-04T12:18:26.531Z,3.03
2018-01-04T12:21:09.232Z,2.03
2018-01-04T12:23:51.970Z,3.67
2018-01-04T12:26:35.349Z,3.27
2018-01-04T12:29:19.483Z,1.83
2018-01-04T12:32:01.853Z,2.67
2018-01-04T12:34:44.504Z,4.10
2018-01-04T12:37:27.442Z,3.57
2018-01-04T12:40:10.022Z,8.93
2018-01-04T12:42:59.715Z,3.00
2018-01-04T12:45:42.620Z,4.70
2018-01-04T12:48:25.490Z,2.70
2018-01-04T12:51:08.134Z,8.43
2018-01-04T12:53:50.853Z,5.23
2018-01-04T12:56:33.783Z,3.00
2018-01-04T12:59:16.460Z,6.80
2018-01-04T13:02:00.370Z,7.33
2018-01-04T13:04:43.130Z,2.93
2018-01-04T13:07:25.258Z,4.20
2018-01-04T13:10:08.188Z,8.73
2018-01-04T13:12:56.985Z,1.13
2018-01-04T13:15:39.310Z,8.83
2018-01-04T13:18:28.783Z,9.50
2018-01-04T13:21:11.907Z,3.87
2018-01-04T13:23:54.452Z,7.33
2018-01-04T13:26:37.049Z,1.30
2018-01-04T13:29:20.176Z,18.93
2018-01-04T13:32:02.386Z,8.30
2018-01-04T13:34:51.957Z,1.10
2018-01-04T13:37:34.740Z,7.00
2018-01-04T13:40:19.161Z,5.77
2018-01-04T13:43:02.006Z,7.80
2018-01-04T13:45:44.589Z,6.97
2018-01-04T13:48:27.214Z,1.10
2018-01-04T13:51:09.816Z,5.13
2018-01-04T13:54:09.789Z,4.07
2018-01-04T13:56:53.930Z,1.20
2018-01-04T13:59:37.520Z,8.30
2018-01-04T14:02:20.507Z,6.00
2018-01-04T14:05:03.098Z,18.00
2018-01-04T14:07:47.519Z,7.33
2018-01-04T14:10:36.398Z,1.40
2018-01-04T14:13:26.086Z,2.13
2018-01-04T14:16:08.865Z,2.37
2018-01-04T14:18:51.890Z,2.50
2018-01-04T14:21:34.847Z,3.43
2018-01-04T14:24:17.584Z,2.27
2018-01-04T14:27:00.211Z,2.23
2018-01-04T14:29:42.906Z,2.17
2018-01-04T14:32:25.867Z,22.57
2018-01-04T14:35:19.251Z,13.33
2018-01-04T14:38:02.118Z,1.87
2018-01-04T14:40:44.770Z,8.07
2018-01-04T14:43:27.279Z,3.23
2018-01-04T14:46:09.885Z,1.50
2018-01-04T14:48:52.466Z,5.23
2018-01-04T14:51:48.987Z,5.53
2018-01-04T14:54:31.857Z,2.63
2018-01-04T14:57:14.722Z,5.33
2018-01-04T14:59:57.578Z,10.10
2018-01-04T15:02:40.006Z,13.67
2018-01-04T15:05:22.577Z,3.63
2018-01-04T15:08:05.178Z,6.10
2018-01-04T15:10:47.857Z,8.27
2018-01-04T15:13:30.600Z,25.07
2018-01-04T15:16:20.066Z,10.73
2018-01-04T15:19:02.741Z,1.73
2018-01-04T15:21:45.377Z,4.10
2018-01-04T15:24:28.124Z,5.00
2018-01-04T15:27:11.977Z,7.67
2018-01-04T15:30:00.892Z,5.23
2018-01-04T15:32:43.841Z,1.20
2018-01-04T15:35:25.949Z,4.40
2018-01-04T15:38:08.669Z,3.57
2018-01-04T15:40:58.145Z,3.67
2018-01-04T15:43:41.049Z,3.77
2018-01-04T15:46:23.883Z,4.93
2018-01-04T15:49:12.546Z,5.90
2018-01-04T15:51:55.267Z,1.73
2018-01-04T15:54:38.850Z,11.23
2018-01-04T15:57:21.561Z,16.70
2018-01-04T16:00:10.282Z,15.60
2018-01-04T16:02:52.820Z,4.80
2018-01-04T16:05:35.362Z,6.10
2018-01-04T16:08:18.097Z,2.90
2018-01-04T16:11:00.796Z,1.60
2018-01-04T16:13:43.480Z,1.00
2018-01-04T16:16:26.134Z,2.80
2018-01-04T16:19:08.718Z,1.27
2018-01-04T16:21:58.446Z,1.67
2018-01-04T16:24:40.937Z,4.80
2018-01-04T16:27:23.458Z,1.37
2018-01-04T16:30:06.205Z,3.00
2018-01-04T16:32:48.753Z,10.60
2018-01-04T16:35:31.589Z,3.27
2018-01-04T16:38:14.176Z,2.27
2018-01-04T16:40:57.073Z,4.47
2018-01-04T16:43:40.112Z,6.33
2018-01-04T16:46:22.670Z,11.03
2018-01-04T16:49:05.506Z,1.70
2018-01-04T16:52:01.953Z,11.30
2018-01-04T16:54:44.910Z,3.67
2018-01-04T16:57:27.716Z,11.43
2018-01-04T17:00:10.495Z,4.30
2018-01-04T17:02:53.045Z,6.23
2018-01-04T17:05:35.726Z,9.47
2018-01-04T17:08:18.213Z,6.93
2018-01-04T17:11:01.155Z,25.73
2018-01-04T17:13:43.882Z,15.03
2018-01-04T17:16:34.174Z,5.03
2018-01-04T17:19:16.940Z,13.90
2018-01-04T17:21:59.458Z,9.70
2018-01-04T17:24:42.293Z,45.93
2018-01-04T17:27:31.988Z,16.97
2018-01-04T17:30:14.436Z,29.23
2018-01-04T17:32:56.953Z,32.03
2018-01-04T17:35:39.601Z,20.40
2018-01-04T17:38:26.118Z,19.87
2018-01-04T17:41:09.033Z,1.40
2018-01-04T17:43:51.505Z,8.93
2018-01-04T17:46:34.158Z,17.00
2018-01-04T17:49:17.177Z,3.53
2018-01-04T17:52:00.418Z,81.97
2018-01-04T17:54:43.254Z,28.10
2018-01-04T17:57:26.032Z,12.13
2018-01-04T18:00:08.821Z,36.87
2018-01-04T18:02:53.728Z,57.77
2018-01-04T18:05:36.503Z,38.80
2018-01-04T18:08:19.523Z,18.23
2018-01-04T18:11:02.138Z,37.53
2018-01-04T18:13:44.995Z,19.13
2018-01-04T18:16:27.726Z,17.87
2018-01-04T18:19:10.238Z,19.03
2018-01-04T18:21:52.858Z,8.07
2018-01-04T18:24:41.769Z,9.37
2018-01-04T18:27:24.020Z,3.60
2018-01-04T18:30:06.770Z,7.93
2018-01-04T18:32:49.305Z,4.97
2018-01-04T18:35:31.983Z,7.30
2018-01-04T18:38:14.560Z,5.83
2018-01-04T18:40:57.040Z,6.90
2018-01-04T18:43:39.525Z,6.30
2018-01-04T18:46:29.809Z,4.23
2018-01-04T18:49:12.713Z,5.53
2018-01-04T18:51:55.262Z,2.80
2018-01-04T18:54:37.968Z,3.87
2018-01-04T18:57:20.553Z,7.00
2018-01-04T19:00:03.323Z,1.47
2018-01-04T19:02:46.769Z,2.63
2018-01-04T19:05:29.693Z,6.57
2018-01-04T19:08:12.503Z,3.30
2018-01-04T19:10:55.486Z,7.20
2018-01-04T19:13:39.674Z,6.63
2018-01-04T19:16:24.054Z,13.43
2018-01-04T19:19:06.529Z,9.40
2018-01-04T19:21:49.280Z,16.53
2018-01-04T19:24:31.844Z,9.50
2018-01-04T19:27:14.422Z,7.43
2018-01-04T19:29:57.045Z,7.87
2018-01-04T19:32:45.814Z,4.73
2018-01-04T19:35:28.345Z,5.33
2018-01-04T19:38:10.728Z,6.63
2018-01-04T19:40:53.356Z,7.53
2018-01-04T19:43:36.480Z,2.00
2018-01-04T19:46:18.672Z,1.53
2018-01-04T19:49:02.038Z,2.10
2018-01-04T19:51:44.961Z,5.67
2018-01-04T19:54:27.622Z,5.07
2018-01-04T19:57:10.273Z,12.93
2018-01-04T19:59:52.511Z,6.70
2018-01-04T20:02:35.226Z,5.80
2018-01-04T20:05:17.990Z,3.03
2018-01-04T20:08:00.582Z,9.73
2018-01-04T20:10:43.172Z,2.00
2018-01-04T20:13:25.777Z,1.47
2018-01-04T20:16:08.976Z,5.40
2018-01-04T20:18:51.956Z,4.93
2018-01-04T20:21:34.848Z,2.50
2018-01-04T20:24:18.549Z,3.70
2018-01-04T20:27:01.496Z,1.30
2018-01-04T20:29:51.566Z,1.20
2018-01-04T20:32:34.542Z,4.50
2018-01-04T20:35:17.178Z,4.43
2018-01-04T20:38:01.141Z,2.57
2018-01-04T20:40:43.956Z,1.90
2018-01-04T20:43:26.586Z,4.20
2018-01-04T20:46:09.058Z,3.00
2018-01-04T20:48:51.674Z,5.43
2018-01-04T20:51:34.218Z,12.23
2018-01-04T20:54:24.678Z,4.93
2018-01-04T20:57:07.515Z,11.63
2018-01-04T20:59:50.173Z,3.67
2018-01-04T21:02:32.782Z,3.00
2018-01-04T21:05:15.657Z,1.93
2018-01-04T21:07:58.035Z,3.10
2018-01-04T21:10:46.807Z,2.30
2018-01-04T21:13:29.310Z,2.13
2018-01-04T21:16:12.046Z,2.80
2018-01-04T21:18:54.831Z,1.67
2018-01-04T21:21:37.348Z,5.30
2018-01-04T21:24:20.018Z,1.60
2018-01-04T21:27:02.822Z,3.93
2018-01-04T21:29:47.341Z,3.13
2018-01-04T21:32:30.313Z,1.60
2018-01-04T21:35:13.174Z,2.63
2018-01-04T21:37:55.828Z,1.50
2018-01-04T21:40:38.445Z,2.90
2018-01-04T21:43:21.074Z,3.40
2018-01-04T21:46:04.770Z,1.93
2018-01-04T21:48:47.668Z,2.07
2018-01-04T21:51:30.779Z,3.73
2018-01-04T21:54:13.061Z,2.03
2018-01-04T21:56:55.699Z,3.97
2018-01-04T21:59:38.383Z,2.63
2018-01-04T22:02:34.790Z,1.50
2018-01-04T22:05:17.637Z,2.23
2018-01-04T22:08:00.429Z,6.73
2018-01-04T22:10:43.012Z,2.80
2018-01-04T22:13:25.746Z,2.20
2018-01-04T22:16:08.247Z,4.50
2018-01-04T22:18:50.766Z,1.80
2018-01-04T22:21:33.423Z,8.53
2018-01-04T22:24:16.804Z,3.10
2018-01-04T22:26:59.591Z,1.90
2018-01-04T22:29:42.235Z,2.30
2018-01-04T22:32:24.958Z,2.73
2018-01-04T22:35:11.086Z,11.23
2018-01-04T22:37:53.694Z,3.40
2018-01-04T22:40:36.307Z,6.43
2018-01-04T22:43:19.337Z,3.47
2018-01-04T22:46:01.816Z,1.97
2018-01-04T22:48:44.642Z,3.13
2018-01-04T22:51:27.126Z,3.20
2018-01-04T22:54:10.783Z,6.03
2018-01-04T22:56:53.593Z,7.03
2018-01-04T22:59:46.534Z,4.67
2018-01-04T23:02:33.831Z,2.47
2018-01-04T23:05:16.702Z,2.87
2018-01-04T23:07:59.285Z,4.53
2018-01-04T23:10:41.920Z,2.20
2018-01-04T23:13:24.614Z,9.90
2018-01-04T23:16:07.256Z,4.50
2018-01-04T23:18:49.881Z,8.13
2018-01-04T23:21:47.751Z,2.67
2018-01-04T23:24:30.513Z,2.10
2018-01-04T23:27:13.113Z,1.60
2018-01-04T23:29:55.758Z,5.03
2018-01-04T23:32:38.331Z,1.80
2018-01-04T23:35:20.829Z,1.63
2018-01-04T23:38:03.499Z,2.03
2018-01-04T23:40:46.039Z,3.20
2018-01-04T23:43:28.728Z,1.60
2018-01-04T23:46:22.442Z,3.83
2018-01-04T23:49:04.957Z,1.63
2018-01-04T23:51:47.056Z,1.90
2018-01-04T23:54:30.297Z,1.67
2018-01-04T23:57:13.062Z,2.80
2018-01-04T23:59:55.384Z,3.53
